createdAt,value
2018-05-29T00:05:54.034Z,6.51
2018-05-29T00:11:49.013Z,6.44
2018-05-29T00:17:43.998Z,6.47
2018-05-29T00:23:39.047Z,6.47
2018-05-29T00:29:33.990Z,6.38
2018-05-29T00:35:28.976Z,6.16
2018-05-29T00:41:24.004Z,6.6
2018-05-29T00:47:18.997Z,6.41
2018-05-29T00:53:13.975Z,7.09
2018-05-29T00:59:09.054Z,7.73
2018-05-29T01:05:04.494Z,7.77
2018-05-29T01:10:59.000Z,7.94
2018-05-29T01:16:54.046Z,8.1
2018-05-29T01:22:48.997Z,7.98
2018-05-29T01:28:44.032Z,8.32
2018-05-29T01:34:39.239Z,8.24
2018-05-29T01:40:34.185Z,7.49
2018-05-29T01:46:29.032Z,8.87
2018-05-29T01:52:24.034Z,9.42
2018-05-29T01:58:19.076Z,10.19
2018-05-29T02:04:14.057Z,9.41
2018-05-29T02:10:09.129Z,9.51
2018-05-29T02:16:04.046Z,10.38
2018-05-29T02:21:59.099Z,10.19
2018-05-29T02:27:54.058Z,10.09
2018-05-29T02:33:49.072Z,9.84
2018-05-29T02:39:44.052Z,8.47
2018-05-29T02:45:39.077Z,9.41
2018-05-29T02:51:34.062Z,9.49
2018-05-29T02:57:29.131Z,8.95
2018-05-29T03:03:24.052Z,9.27
2018-05-29T03:09:19.107Z,8.9
2018-05-29T03:15:14.081Z,9.27
2018-05-29T03:21:09.079Z,9.42
2018-05-29T03:27:04.085Z,9.39
2018-05-29T03:32:59.137Z,9.76
2018-05-29T03:38:54.080Z,10.18
2018-05-29T03:44:49.120Z,9.88
2018-05-29T03:50:44.125Z,9.19
2018-05-29T03:56:39.192Z,9.77
2018-05-29T04:02:34.087Z,9.49
2018-05-29T04:08:29.096Z,9.06
2018-05-29T04:14:24.121Z,9.98
2018-05-29T04:20:19.302Z,9.78
2018-05-29T04:26:14.165Z,9.94
2018-05-29T04:32:09.190Z,9.87
2018-05-29T04:38:04.164Z,9.23
2018-05-29T04:43:59.123Z,8.32
2018-05-29T04:49:54.219Z,9.3
2018-05-29T04:55:49.233Z,8.64
2018-05-29T05:01:44.464Z,10.01
2018-05-29T05:07:39.242Z,9.28
2018-05-29T05:13:34.143Z,9.54
2018-05-29T05:19:29.219Z,8.66
2018-05-29T05:25:24.395Z,9.05
2018-05-29T05:31:19.190Z,8.11
2018-05-29T05:37:14.214Z,8.42
2018-05-29T05:43:09.249Z,8.79
2018-05-29T05:49:04.211Z,8.23
2018-05-29T05:54:59.164Z,8.61
2018-05-29T06:00:54.420Z,8.94
2018-05-29T06:06:49.371Z,7.62
2018-05-29T06:12:44.176Z,8.4
2018-05-29T06:18:39.190Z,7.66
2018-05-29T06:24:34.199Z,8.44
2018-05-29T06:30:29.513Z,8.99
2018-05-29T06:36:24.231Z,10.16
2018-05-29T06:42:19.206Z,12.61
2018-05-29T06:48:14.263Z,13.19
2018-05-29T06:54:09.230Z,15.05
2018-05-29T07:00:04.209Z,16.17
2018-05-29T07:05:59.295Z,15.08
2018-05-29T07:11:54.228Z,14.74
2018-05-29T07:17:49.259Z,14.21
2018-05-29T07:23:44.256Z,13.51
2018-05-29T07:29:39.245Z,12.97
2018-05-29T07:35:34.246Z,10.98
2018-05-29T07:41:29.252Z,10.64
2018-05-29T07:47:24.316Z,9.74
2018-05-29T07:53:19.315Z,9.63
2018-05-29T07:59:14.270Z,8.65
2018-05-29T08:05:09.493Z,8.01
2018-05-29T08:11:04.273Z,7.15
2018-05-29T08:16:59.342Z,5.72
2018-05-29T08:22:54.335Z,5.63
2018-05-29T08:28:49.389Z,3.33
2018-05-29T08:34:44.307Z,3.82
2018-05-29T08:40:39.302Z,4.16
2018-05-29T08:46:34.334Z,4.67
2018-05-29T08:52:29.305Z,4.33
2018-05-29T08:58:24.307Z,4.71
2018-05-29T09:04:19.410Z,4.69
2018-05-29T09:10:14.361Z,5.35
2018-05-29T09:16:09.342Z,4.81
2018-05-29T09:22:04.319Z,4.39
2018-05-29T09:27:59.357Z,4.91
2018-05-29T09:33:54.394Z,4.72
2018-05-29T09:39:49.336Z,5.38
2018-05-29T09:45:44.363Z,4.97
2018-05-29T09:51:39.347Z,4.74
2018-05-29T09:57:34.350Z,4.61
2018-05-29T10:03:29.389Z,4.53
2018-05-29T10:09:24.373Z,3.98
2018-05-29T10:15:19.436Z,4.09
2018-05-29T10:21:14.402Z,3.97
2018-05-29T10:27:09.394Z,4.1
2018-05-29T10:33:04.381Z,3.28
2018-05-29T10:38:59.408Z,3.92
2018-05-29T10:44:54.453Z,3.8
2018-05-29T10:50:49.403Z,3.62
2018-05-29T10:56:44.457Z,4.12
2018-05-29T11:02:39.418Z,3.68
2018-05-29T11:08:34.406Z,2.92
2018-05-29T11:14:29.416Z,3.71
2018-05-29T11:20:24.433Z,3.97
2018-05-29T11:26:19.419Z,3.39
2018-05-29T11:32:14.453Z,3.67
2018-05-29T11:38:09.435Z,3.25
2018-05-29T11:44:04.476Z,3.55
2018-05-29T11:49:59.454Z,3.39
2018-05-29T11:55:54.486Z,3.99
2018-05-29T12:01:49.557Z,3.58
2018-05-29T12:07:44.536Z,4.28
2018-05-29T12:13:39.483Z,3.8
2018-05-29T12:19:34.447Z,3.91
2018-05-29T12:25:29.497Z,4.82
2018-05-29T12:31:24.493Z,4.69
2018-05-29T12:37:19.521Z,4.77
2018-05-29T12:43:14.481Z,3.8
2018-05-29T12:49:09.487Z,3.59
2018-05-29T12:55:04.527Z,3.46
2018-05-29T13:00:59.617Z,3.24
2018-05-29T13:06:54.537Z,3.16
2018-05-29T13:12:49.498Z,3.28
2018-05-29T13:18:44.928Z,2.89
2018-05-29T13:24:39.551Z,3.52
2018-05-29T13:30:34.568Z,3.41
2018-05-29T13:36:29.561Z,3.59
2018-05-29T13:42:24.541Z,3.34
2018-05-29T13:48:19.527Z,3.21
2018-05-29T13:54:14.546Z,3.19
2018-05-29T14:00:09.992Z,3.07
2018-05-29T14:06:04.586Z,2.87
2018-05-29T14:11:59.566Z,3.04
2018-05-29T14:17:54.586Z,2.9
2018-05-29T14:23:49.553Z,2.9
2018-05-29T14:29:44.552Z,2.9
2018-05-29T14:35:39.616Z,2.7
2018-05-29T14:41:34.571Z,2.98
2018-05-29T14:47:29.589Z,2.44
2018-05-29T14:53:24.630Z,2.64
2018-05-29T14:59:19.620Z,3.26
2018-05-29T15:05:14.623Z,3.87
2018-05-29T15:11:09.622Z,2.77
2018-05-29T15:17:04.601Z,3.77
2018-05-29T15:22:59.624Z,2.85
2018-05-29T15:28:54.603Z,2.73
2018-05-29T15:34:49.646Z,2.55
2018-05-29T15:40:44.657Z,3.35
2018-05-29T15:46:39.638Z,5.03
2018-05-29T15:52:34.657Z,3.44
2018-05-29T15:58:29.659Z,3.18
2018-05-29T16:04:24.669Z,3.6
2018-05-29T16:10:19.653Z,3.53
2018-05-29T16:16:14.670Z,3.52
2018-05-29T16:22:09.679Z,4.2
2018-05-29T16:28:04.645Z,3.41
2018-05-29T16:33:59.628Z,3.43
2018-05-29T16:39:54.738Z,3.11
2018-05-29T16:45:49.676Z,2.9
2018-05-29T16:51:44.699Z,3.45
2018-05-29T16:57:39.694Z,3.23
2018-05-29T17:03:34.703Z,3.43
2018-05-29T17:09:29.702Z,3.79
2018-05-29T17:15:24.923Z,3.81
2018-05-29T17:21:19.704Z,3.53
2018-05-29T17:27:14.678Z,4.28
2018-05-29T17:33:09.726Z,5.06
2018-05-29T17:39:04.752Z,4.66
2018-05-29T17:44:59.763Z,4.27
2018-05-29T17:50:54.725Z,4.28
2018-05-29T17:56:49.749Z,3.69
2018-05-29T18:02:44.771Z,3.99
2018-05-29T18:08:39.745Z,4.12
2018-05-29T18:14:34.778Z,4.62
2018-05-29T18:20:29.753Z,5.23
2018-05-29T18:26:24.773Z,5.54
2018-05-29T18:32:19.777Z,5.45
2018-05-29T18:38:14.772Z,5.37
2018-05-29T18:44:09.775Z,5.33
2018-05-29T18:50:04.748Z,4.39
2018-05-29T18:55:59.775Z,4.77
2018-05-29T19:01:54.788Z,4.45
2018-05-29T19:07:49.805Z,4.5
2018-05-29T19:13:44.792Z,4.42
2018-05-29T19:19:39.824Z,4.75
2018-05-29T19:25:34.813Z,5.29
2018-05-29T19:31:29.831Z,4.86
2018-05-29T19:37:24.840Z,4.89
2018-05-29T19:43:19.820Z,4.59
2018-05-29T19:49:14.803Z,4.28
2018-05-29T19:55:09.827Z,5.19
2018-05-29T20:01:04.832Z,5.35
2018-05-29T20:06:59.834Z,5.39
2018-05-29T20:12:54.840Z,5.56
2018-05-29T20:18:49.891Z,6.33
2018-05-29T20:24:44.848Z,6.3
2018-05-29T20:30:39.830Z,5.65
2018-05-29T20:36:34.841Z,5.97
2018-05-29T20:42:29.831Z,5.4
2018-05-29T20:48:24.901Z,5.67
2018-05-29T20:54:19.826Z,5.61
2018-05-29T21:00:14.852Z,6.39
2018-05-29T21:06:09.867Z,5.73
2018-05-29T21:12:04.893Z,5.74
2018-05-29T21:17:59.921Z,6.2
2018-05-29T21:23:54.851Z,6.48
2018-05-29T21:29:49.882Z,5.64
2018-05-29T21:35:44.920Z,5.86
2018-05-29T21:41:39.884Z,6.14
2018-05-29T21:47:34.904Z,5.91
2018-05-29T21:53:29.954Z,6.04
2018-05-29T21:59:24.946Z,5.58
2018-05-29T22:05:19.957Z,5.96
2018-05-29T22:11:14.891Z,6.39
2018-05-29T22:17:09.895Z,6.28
2018-05-29T22:23:04.947Z,6.89
2018-05-29T22:28:59.917Z,7.26
2018-05-29T22:34:54.944Z,6.93
2018-05-29T22:40:49.948Z,6.43
2018-05-29T22:46:44.938Z,6.33
2018-05-29T22:52:39.945Z,6.37
2018-05-29T22:58:34.977Z,6.35
2018-05-29T23:04:29.941Z,6.02
2018-05-29T23:10:25.012Z,7.23
2018-05-29T23:16:19.974Z,6.78
2018-05-29T23:22:14.980Z,6.57
2018-05-29T23:28:09.976Z,6.73
2018-05-29T23:34:04.981Z,6.63
2018-05-29T23:39:59.953Z,7.02
2018-05-29T23:45:55.005Z,6.72
2018-05-29T23:51:49.971Z,7.03
2018-05-29T23:57:44.980Z,7.22
